sensor_id;sensor_type;location;lat;lon;timestamp;pressure;altitude;pressure_sealevel;temperature;humidity
66385;BME280;53426;55.872;37.462;2023-03-16T00:00:43;98798.94;;;3.88;68.80
66385;BME280;53426;55.872;37.462;2023-03-16T00:03:10;98817.88;;;4.04;68.66
66385;BME280;53426;55.872;37.462;2023-03-16T00:05:38;98815.91;;;4.08;68.23
66385;BME280;53426;55.872;37.462;2023-03-16T00:08:04;98818.53;;;4.08;68.25
66385;BME280;53426;55.872;37.462;2023-03-16T00:10:30;98812.56;;;4.06;68.42
66385;BME280;53426;55.872;37.462;2023-03-16T00:12:56;98780.31;;;3.93;68.41
66385;BME280;53426;55.872;37.462;2023-03-16T00:15:23;98802.50;;;4.12;68.26
66385;BME280;53426;55.872;37.462;2023-03-16T00:17:49;98794.22;;;4.18;68.27
66385;BME280;53426;55.872;37.462;2023-03-16T00:20:16;98802.88;;;4.32;67.96
66385;BME280;53426;55.872;37.462;2023-03-16T00:22:43;98796.78;;;4.31;67.48
66385;BME280;53426;55.872;37.462;2023-03-16T00:25:10;98794.63;;;4.25;67.37
66385;BME280;53426;55.872;37.462;2023-03-16T00:27:37;98786.31;;;4.31;67.75
66385;BME280;53426;55.872;37.462;2023-03-16T00:30:03;98778.97;;;4.36;67.27
66385;BME280;53426;55.872;37.462;2023-03-16T00:32:35;98776.03;;;4.41;67.40
66385;BME280;53426;55.872;37.462;2023-03-16T00:35:03;98780.84;;;4.47;67.51
66385;BME280;53426;55.872;37.462;2023-03-16T00:37:30;98775.81;;;4.44;66.82
66385;BME280;53426;55.872;37.462;2023-03-16T00:39:58;98781.22;;;4.53;66.97
66385;BME280;53426;55.872;37.462;2023-03-16T00:42:28;98790.59;;;4.45;66.74
66385;BME280;53426;55.872;37.462;2023-03-16T00:44:55;98785.69;;;4.40;67.37
66385;BME280;53426;55.872;37.462;2023-03-16T00:47:25;98775.81;;;4.44;66.81
66385;BME280;53426;55.872;37.462;2023-03-16T00:49:53;98789.81;;;4.55;66.85
66385;BME280;53426;55.872;37.462;2023-03-16T00:52:21;98792.84;;;4.62;66.78
66385;BME280;53426;55.872;37.462;2023-03-16T00:54:49;98795.72;;;4.46;66.83
66385;BME280;53426;55.872;37.462;2023-03-16T00:57:18;98798.22;;;4.48;67.23
66385;BME280;53426;55.872;37.462;2023-03-16T00:59:45;98794.13;;;4.56;67.15
66385;BME280;53426;55.872;37.462;2023-03-16T01:02:11;98790.75;;;4.54;66.91
66385;BME280;53426;55.872;37.462;2023-03-16T01:04:38;98794.13;;;4.56;66.71
66385;BME280;53426;55.872;37.462;2023-03-16T01:07:08;98794.13;;;4.56;67.32
66385;BME280;53426;55.872;37.462;2023-03-16T01:09:35;98789.81;;;4.55;67.06
66385;BME280;53426;55.872;37.462;2023-03-16T01:12:23;98795.69;;;4.59;66.99
66385;BME280;53426;55.872;37.462;2023-03-16T01:14:49;98785.53;;;4.54;67.30
66385;BME280;53426;55.872;37.462;2023-03-16T01:17:16;98788.44;;;4.62;67.50
66385;BME280;53426;55.872;37.462;2023-03-16T01:19:42;98797.78;;;4.54;67.75
66385;BME280;53426;55.872;37.462;2023-03-16T01:22:13;98789.09;;;4.53;67.84
66385;BME280;53426;55.872;37.462;2023-03-16T01:24:42;98783.00;;;4.53;67.71
66385;BME280;53426;55.872;37.462;2023-03-16T01:27:12;98785.84;;;4.50;67.59
66385;BME280;53426;55.872;37.462;2023-03-16T01:29:39;98776.88;;;4.41;67.64
66385;BME280;53426;55.872;37.462;2023-03-16T01:32:09;98803.25;;;4.51;68.12
66385;BME280;53426;55.872;37.462;2023-03-16T01:34:35;98783.47;;;4.47;67.87
66385;BME280;53426;55.872;37.462;2023-03-16T01:37:03;98786.38;;;4.42;68.54
66385;BME280;53426;55.872;37.462;2023-03-16T01:39:48;98815.09;;;4.56;68.61
66385;BME280;53426;55.872;37.462;2023-03-16T01:42:14;98804.53;;;4.45;69.01
66385;BME280;53426;55.872;37.462;2023-03-16T01:44:55;98802.94;;;4.43;68.83
66385;BME280;53426;55.872;37.462;2023-03-16T01:47:26;98801.59;;;4.37;68.89
66385;BME280;53426;55.872;37.462;2023-03-16T01:49:55;98804.97;;;4.39;69.26
66385;BME280;53426;55.872;37.462;2023-03-16T01:52:28;98799.28;;;4.45;69.36
66385;BME280;53426;55.872;37.462;2023-03-16T01:55:10;98798.34;;;4.46;69.05
66385;BME280;53426;55.872;37.462;2023-03-16T01:57:40;98794.38;;;4.41;69.03
66385;BME280;53426;55.872;37.462;2023-03-16T02:00:14;98786.63;;;4.39;69.60
66385;BME280;53426;55.872;37.462;2023-03-16T02:03:14;98800.38;;;4.30;70.21
66385;BME280;53426;55.872;37.462;2023-03-16T02:06:14;98804.34;;;4.36;70.24
66385;BME280;53426;55.872;37.462;2023-03-16T02:08:43;98803.84;;;4.31;69.94
66385;BME280;53426;55.872;37.462;2023-03-16T02:11:11;98806.75;;;4.26;70.25
66385;BME280;53426;55.872;37.462;2023-03-16T02:13:51;98800.91;;;4.22;71.08
66385;BME280;53426;55.872;37.462;2023-03-16T02:16:18;98794.81;;;4.22;70.50
66385;BME280;53426;55.872;37.462;2023-03-16T02:18:48;98792.44;;;4.19;70.76
66385;BME280;53426;55.872;37.462;2023-03-16T02:21:21;98792.00;;;4.25;70.90
66385;BME280;53426;55.872;37.462;2023-03-16T02:23:54;98803.28;;;4.26;70.58
66385;BME280;53426;55.872;37.462;2023-03-16T02:26:40;98801.75;;;4.23;70.49
66385;BME280;53426;55.872;37.462;2023-03-16T02:31:53;98813.81;;;4.13;71.17
66385;BME280;53426;55.872;37.462;2023-03-16T02:34:20;98807.94;;;4.09;71.12
66385;BME280;53426;55.872;37.462;2023-03-16T02:36:46;98790.78;;;3.93;71.48
66385;BME280;53426;55.872;37.462;2023-03-16T02:39:15;98801.88;;;4.09;71.71
66385;BME280;53426;55.872;37.462;2023-03-16T02:41:45;98803.00;;;4.05;71.59
66385;BME280;53426;55.872;37.462;2023-03-16T02:44:17;98766.06;;;3.97;71.56
66385;BME280;53426;55.872;37.462;2023-03-16T02:46:45;98799.53;;;4.17;70.95
66385;BME280;53426;55.872;37.462;2023-03-16T02:49:27;98799.78;;;4.14;70.87
66385;BME280;53426;55.872;37.462;2023-03-16T02:51:56;98790.94;;;4.15;71.31
66385;BME280;53426;55.872;37.462;2023-03-16T02:54:22;98802.06;;;4.18;71.00
66385;BME280;53426;55.872;37.462;2023-03-16T02:56:50;98796.06;;;4.29;71.07
66385;BME280;53426;55.872;37.462;2023-03-16T02:59:16;98786.97;;;4.22;70.57
66385;BME280;53426;55.872;37.462;2023-03-16T03:01:42;98794.50;;;4.27;71.08
66385;BME280;53426;55.872;37.462;2023-03-16T03:04:09;98762.34;;;4.12;70.93
66385;BME280;53426;55.872;37.462;2023-03-16T03:06:35;98798.38;;;4.34;70.23
66385;BME280;53426;55.872;37.462;2023-03-16T03:09:01;98785.28;;;4.21;71.00
66385;BME280;53426;55.872;37.462;2023-03-16T03:11:27;98790.94;;;4.28;70.93
66385;BME280;53426;55.872;37.462;2023-03-16T03:13:54;98777.31;;;4.22;70.96
66385;BME280;53426;55.872;37.462;2023-03-16T03:16:23;98796.69;;;4.33;70.97
66385;BME280;53426;55.872;37.462;2023-03-16T03:18:49;98781.81;;;4.33;70.45
66385;BME280;53426;55.872;37.462;2023-03-16T03:21:17;98796.19;;;4.28;70.60
66385;BME280;53426;55.872;37.462;2023-03-16T03:23:43;98775.44;;;4.25;70.97
66385;BME280;53426;55.872;37.462;2023-03-16T03:26:12;98775.63;;;4.34;70.27
66385;BME280;53426;55.872;37.462;2023-03-16T03:28:43;98786.31;;;4.31;70.90
66385;BME280;53426;55.872;37.462;2023-03-16T03:31:20;98794.06;;;4.33;70.76
66385;BME280;53426;55.872;37.462;2023-03-16T03:33:46;98794.72;;;4.36;70.91
66385;BME280;53426;55.872;37.462;2023-03-16T03:36:12;98783.38;;;4.36;71.01
66385;BME280;53426;55.872;37.462;2023-03-16T03:38:40;98780.63;;;4.37;70.55
66385;BME280;53426;55.872;37.462;2023-03-16T03:41:06;98756.13;;;4.26;71.07
66385;BME280;53426;55.872;37.462;2023-03-16T03:43:35;98758.72;;;4.38;70.97
66385;BME280;53426;55.872;37.462;2023-03-16T03:46:02;98764.47;;;4.43;71.25
66385;BME280;53426;55.872;37.462;2023-03-16T03:48:31;98747.41;;;4.38;70.65
66385;BME280;53426;55.872;37.462;2023-03-16T03:50:57;98746.28;;;4.29;71.17
66385;BME280;53426;55.872;37.462;2023-03-16T03:53:41;98761.38;;;4.26;71.49
66385;BME280;53426;55.872;37.462;2023-03-16T03:56:35;98753.91;;;4.32;71.57
66385;BME280;53426;55.872;37.462;2023-03-16T03:59:01;98758.97;;;4.35;71.31
66385;BME280;53426;55.872;37.462;2023-03-16T04:01:47;98768.28;;;4.39;70.93
66385;BME280;53426;55.872;37.462;2023-03-16T04:04:14;98769.94;;;4.40;71.29
66385;BME280;53426;55.872;37.462;2023-03-16T04:06:40;98767.44;;;4.26;71.34
66385;BME280;53426;55.872;37.462;2023-03-16T04:09:08;98758.97;;;4.22;71.70
66385;BME280;53426;55.872;37.462;2023-03-16T04:11:34;98764.97;;;4.25;71.50
66385;BME280;53426;55.872;37.462;2023-03-16T04:14:00;98757.31;;;4.21;71.80
66385;BME280;53426;55.872;37.462;2023-03-16T04:16:26;98769.97;;;4.28;71.44
66385;BME280;53426;55.872;37.462;2023-03-16T04:18:53;98771.56;;;4.30;71.24
66385;BME280;53426;55.872;37.462;2023-03-16T04:21:21;98773.63;;;4.38;71.54
66385;BME280;53426;55.872;37.462;2023-03-16T04:23:49;98750.34;;;4.46;71.65
66385;BME280;53426;55.872;37.462;2023-03-16T04:26:21;98735.38;;;4.35;70.65
66385;BME280;53426;55.872;37.462;2023-03-16T04:28:48;98764.28;;;4.46;71.37
66385;BME280;53426;55.872;37.462;2023-03-16T04:31:16;98770.13;;;4.50;70.73
66385;BME280;53426;55.872;37.462;2023-03-16T04:33:45;98752.03;;;4.34;71.04
66385;BME280;53426;55.872;37.462;2023-03-16T04:36:11;98772.50;;;4.53;70.72
66385;BME280;53426;55.872;37.462;2023-03-16T04:38:37;98776.81;;;4.54;70.57
66385;BME280;53426;55.872;37.462;2023-03-16T04:41:05;98778.81;;;4.63;70.97
66385;BME280;53426;55.872;37.462;2023-03-16T04:43:38;98779.63;;;4.63;70.75
66385;BME280;53426;55.872;37.462;2023-03-16T04:46:17;98778.28;;;4.58;70.89
66385;BME280;53426;55.872;37.462;2023-03-16T04:48:43;98779.34;;;4.55;70.88
66385;BME280;53426;55.872;37.462;2023-03-16T04:51:09;98787.19;;;4.55;70.91
66385;BME280;53426;55.872;37.462;2023-03-16T04:53:39;98797.69;;;4.55;70.75
66385;BME280;53426;55.872;37.462;2023-03-16T04:56:13;98797.69;;;4.55;71.30
66385;BME280;53426;55.872;37.462;2023-03-16T04:58:48;98800.75;;;4.49;71.41
66385;BME280;53426;55.872;37.462;2023-03-16T05:01:16;98797.84;;;4.41;71.66
66385;BME280;53426;55.872;37.462;2023-03-16T05:03:43;98775.72;;;4.33;71.76
66385;BME280;53426;55.872;37.462;2023-03-16T05:06:10;98792.38;;;4.32;71.85
66385;BME280;53426;55.872;37.462;2023-03-16T05:08:37;98794.50;;;4.27;71.86
66385;BME280;53426;55.872;37.462;2023-03-16T05:11:05;98801.13;;;4.19;72.20
66385;BME280;53426;55.872;37.462;2023-03-16T05:13:36;98807.19;;;4.20;72.63
66385;BME280;53426;55.872;37.462;2023-03-16T05:16:03;98805.63;;;4.17;72.52
66385;BME280;53426;55.872;37.462;2023-03-16T05:18:34;98793.47;;;4.16;72.61
66385;BME280;53426;55.872;37.462;2023-03-16T05:21:00;98809.88;;;4.31;72.28
66385;BME280;53426;55.872;37.462;2023-03-16T05:23:35;98818.72;;;4.30;72.50
66385;BME280;53426;55.872;37.462;2023-03-16T05:26:05;98810.44;;;4.36;71.88
66385;BME280;53426;55.872;37.462;2023-03-16T05:28:35;98811.38;;;4.35;72.08
66385;BME280;53426;55.872;37.462;2023-03-16T05:31:07;98821.97;;;4.34;71.66
66385;BME280;53426;55.872;37.462;2023-03-16T05:33:40;98805.53;;;4.19;72.00
66385;BME280;53426;55.872;37.462;2023-03-16T05:36:09;98810.97;;;4.16;72.54
66385;BME280;53426;55.872;37.462;2023-03-16T05:38:38;98822.81;;;4.21;72.57
66385;BME280;53426;55.872;37.462;2023-03-16T05:41:06;98821.34;;;4.17;72.34
66385;BME280;53426;55.872;37.462;2023-03-16T05:43:58;98820.00;;;4.12;72.81
66385;BME280;53426;55.872;37.462;2023-03-16T05:46:33;98818.31;;;4.11;72.88
66385;BME280;53426;55.872;37.462;2023-03-16T05:49:02;98820.50;;;4.17;73.01
66385;BME280;53426;55.872;37.462;2023-03-16T05:51:28;98826.50;;;4.19;72.57
66385;BME280;53426;55.872;37.462;2023-03-16T05:53:55;98815.78;;;4.09;72.68
66385;BME280;53426;55.872;37.462;2023-03-16T05:56:28;98828.28;;;4.18;72.99
66385;BME280;53426;55.872;37.462;2023-03-16T05:58:55;98822.28;;;4.29;73.25
66385;BME280;53426;55.872;37.462;2023-03-16T06:01:24;98796.63;;;4.09;72.82
66385;BME280;53426;55.872;37.462;2023-03-16T06:03:50;98823.31;;;4.27;72.98
66385;BME280;53426;55.872;37.462;2023-03-16T06:06:21;98826.88;;;4.26;72.61
66385;BME280;53426;55.872;37.462;2023-03-16T06:08:54;98834.72;;;4.38;72.94
66385;BME280;53426;55.872;37.462;2023-03-16T06:11:22;98822.56;;;4.37;72.88
66385;BME280;53426;55.872;37.462;2023-03-16T06:13:48;98823.41;;;4.50;73.08
66385;BME280;53426;55.872;37.462;2023-03-16T06:16:15;98814.09;;;4.46;72.08
66385;BME280;53426;55.872;37.462;2023-03-16T06:18:42;98818.81;;;4.41;72.53
66385;BME280;53426;55.872;37.462;2023-03-16T06:21:08;98819.66;;;4.42;72.23
66385;BME280;53426;55.872;37.462;2023-03-16T06:23:34;98823.81;;;4.44;72.40
66385;BME280;53426;55.872;37.462;2023-03-16T06:26:01;98822.06;;;4.32;72.87
66385;BME280;53426;55.872;37.462;2023-03-16T06:28:29;98826.06;;;4.25;73.08
66385;BME280;53426;55.872;37.462;2023-03-16T06:30:56;98845.78;;;4.18;73.88
66385;BME280;53426;55.872;37.462;2023-03-16T06:33:26;98854.56;;;4.17;73.73
66385;BME280;53426;55.872;37.462;2023-03-16T06:35:52;98837.06;;;4.05;74.12
66385;BME280;53426;55.872;37.462;2023-03-16T06:38:31;98839.50;;;4.08;74.12
66385;BME280;53426;55.872;37.462;2023-03-16T06:41:09;98853.22;;;4.11;74.24
66385;BME280;53426;55.872;37.462;2023-03-16T06:43:36;98849.97;;;4.08;74.54
66385;BME280;53426;55.872;37.462;2023-03-16T06:46:02;98848.81;;;4.12;74.34
66385;BME280;53426;55.872;37.462;2023-03-16T06:48:28;98840.00;;;4.13;74.15
66385;BME280;53426;55.872;37.462;2023-03-16T06:50:55;98854.66;;;4.28;74.51
66385;BME280;53426;55.872;37.462;2023-03-16T06:53:25;98846.06;;;4.39;74.73
66385;BME280;53426;55.872;37.462;2023-03-16T06:55:52;98854.00;;;4.50;74.01
66385;BME280;53426;55.872;37.462;2023-03-16T06:58:18;98855.25;;;4.57;73.59
66385;BME280;53426;55.872;37.462;2023-03-16T07:00:44;98847.16;;;4.60;73.32
66385;BME280;53426;55.872;37.462;2023-03-16T07:03:10;98853.56;;;4.69;73.18
66385;BME280;53426;55.872;37.462;2023-03-16T07:05:43;98854.38;;;4.69;72.98
66385;BME280;53426;55.872;37.462;2023-03-16T07:08:09;98860.47;;;4.70;72.69
66385;BME280;53426;55.872;37.462;2023-03-16T07:10:36;98855.59;;;4.52;72.99
66385;BME280;53426;55.872;37.462;2023-03-16T07:13:03;98850.34;;;4.40;73.13
66385;BME280;53426;55.872;37.462;2023-03-16T07:15:29;98855.50;;;4.41;73.86
66385;BME280;53426;55.872;37.462;2023-03-16T07:17:57;98849.53;;;4.39;74.13
66385;BME280;53426;55.872;37.462;2023-03-16T07:20:24;98848.34;;;4.43;73.79
66385;BME280;53426;55.872;37.462;2023-03-16T07:22:51;98851.19;;;4.40;73.76
66385;BME280;53426;55.872;37.462;2023-03-16T07:25:17;98866.81;;;4.42;73.84
66385;BME280;53426;55.872;37.462;2023-03-16T07:27:48;98852.13;;;4.52;73.91
66385;BME280;53426;55.872;37.462;2023-03-16T07:30:20;98846.81;;;4.41;73.31
66385;BME280;53426;55.872;37.462;2023-03-16T07:32:48;98847.50;;;4.55;74.06
66385;BME280;53426;55.872;37.462;2023-03-16T07:35:15;98849.03;;;4.71;73.26
66385;BME280;53426;55.872;37.462;2023-03-16T07:37:44;98853.38;;;4.95;73.04
66385;BME280;53426;55.872;37.462;2023-03-16T07:40:11;98810.94;;;4.78;71.60
66385;BME280;53426;55.872;37.462;2023-03-16T07:42:39;98846.94;;;4.99;71.50
66385;BME280;53426;55.872;37.462;2023-03-16T07:45:09;98849.69;;;4.98;71.01
66385;BME280;53426;55.872;37.462;2023-03-16T07:47:37;98856.59;;;4.99;71.49
66385;BME280;53426;55.872;37.462;2023-03-16T07:50:10;98833.09;;;4.97;71.59
66385;BME280;53426;55.872;37.462;2023-03-16T07:52:39;98838.47;;;5.20;71.46
66385;BME280;53426;55.872;37.462;2023-03-16T07:55:06;98824.34;;;5.33;71.18
66385;BME280;53426;55.872;37.462;2023-03-16T07:57:33;98828.91;;;5.42;70.40
66385;BME280;53426;55.872;37.462;2023-03-16T07:59:59;98817.91;;;5.37;70.66
66385;BME280;53426;55.872;37.462;2023-03-16T08:02:39;98843.19;;;5.73;70.36
66385;BME280;53426;55.872;37.462;2023-03-16T08:05:07;98838.16;;;5.94;68.97
66385;BME280;53426;55.872;37.462;2023-03-16T08:07:39;98838.66;;;6.10;69.29
66385;BME280;53426;55.872;37.462;2023-03-16T08:10:17;98846.75;;;6.07;68.43
66385;BME280;53426;55.872;37.462;2023-03-16T08:12:56;98855.03;;;6.14;68.06
66385;BME280;53426;55.872;37.462;2023-03-16T08:15:22;98835.41;;;6.07;67.76
66385;BME280;53426;55.872;37.462;2023-03-16T08:17:53;98850.38;;;6.28;67.94
66385;BME280;53426;55.872;37.462;2023-03-16T08:20:23;98849.41;;;6.41;68.11
66385;BME280;53426;55.872;37.462;2023-03-16T08:22:49;98853.72;;;6.42;67.48
66385;BME280;53426;55.872;37.462;2023-03-16T08:25:20;98859.94;;;6.41;66.69
66385;BME280;53426;55.872;37.462;2023-03-16T08:28:04;98853.00;;;6.28;66.57
66385;BME280;53426;55.872;37.462;2023-03-16T08:30:30;98855.25;;;6.22;66.90
66385;BME280;53426;55.872;37.462;2023-03-16T08:33:21;98843.09;;;6.21;67.34
66385;BME280;53426;55.872;37.462;2023-03-16T08:35:47;98833.63;;;6.18;67.09
66385;BME280;53426;55.872;37.462;2023-03-16T08:38:13;98839.63;;;6.32;66.52
66385;BME280;53426;55.872;37.462;2023-03-16T08:40:42;98839.16;;;6.38;67.01
66385;BME280;53426;55.872;37.462;2023-03-16T08:43:15;98837.59;;;6.46;66.23
66385;BME280;53426;55.872;37.462;2023-03-16T08:45:46;98829.22;;;6.52;66.45
66385;BME280;53426;55.872;37.462;2023-03-16T08:48:14;98840.31;;;6.67;66.29
66385;BME280;53426;55.872;37.462;2023-03-16T08:50:43;98831.84;;;6.63;65.61
66385;BME280;53426;55.872;37.462;2023-03-16T08:53:10;98845.34;;;6.70;65.80
66385;BME280;53426;55.872;37.462;2023-03-16T08:55:37;98843.56;;;6.59;65.78
66385;BME280;53426;55.872;37.462;2023-03-16T08:58:02;98847.50;;;6.65;65.91
66385;BME280;53426;55.872;37.462;2023-03-16T09:00:28;98847.72;;;6.62;65.53
66385;BME280;53426;55.872;37.462;2023-03-16T09:02:54;98856.34;;;6.64;66.11
66385;BME280;53426;55.872;37.462;2023-03-16T09:05:21;98842.59;;;6.60;66.25
66385;BME280;53426;55.872;37.462;2023-03-16T09:07:49;98854.41;;;6.66;66.56
66385;BME280;53426;55.872;37.462;2023-03-16T09:10:17;98856.25;;;6.65;66.71
66385;BME280;53426;55.872;37.462;2023-03-16T09:12:43;98851.22;;;6.62;66.31
66385;BME280;53426;55.872;37.462;2023-03-16T09:15:10;98848.47;;;6.64;66.45
66385;BME280;53426;55.872;37.462;2023-03-16T09:17:37;98851.09;;;6.64;67.19
66385;BME280;53426;55.872;37.462;2023-03-16T09:20:04;98853.94;;;6.72;66.97
66385;BME280;53426;55.872;37.462;2023-03-16T09:22:34;98854.66;;;6.74;66.40
66385;BME280;53426;55.872;37.462;2023-03-16T09:25:03;98851.44;;;6.82;66.43
66385;BME280;53426;55.872;37.462;2023-03-16T09:27:32;98842.25;;;6.76;66.31
66385;BME280;53426;55.872;37.462;2023-03-16T09:29:58;98840.56;;;6.64;66.71
66385;BME280;53426;55.872;37.462;2023-03-16T09:32:26;98843.56;;;6.48;67.63
66385;BME280;53426;55.872;37.462;2023-03-16T09:34:53;98845.13;;;6.51;68.23
66385;BME280;53426;55.872;37.462;2023-03-16T09:37:21;98849.16;;;6.55;68.04
66385;BME280;53426;55.872;37.462;2023-03-16T09:39:48;98822.66;;;6.47;67.81
66385;BME280;53426;55.872;37.462;2023-03-16T09:42:28;98843.91;;;6.66;66.83
66385;BME280;53426;55.872;37.462;2023-03-16T09:45:23;98844.25;;;6.61;66.15
66385;BME280;53426;55.872;37.462;2023-03-16T09:47:56;98852.53;;;6.57;67.32
66385;BME280;53426;55.872;37.462;2023-03-16T09:50:44;98834.94;;;6.57;66.79
66385;BME280;53426;55.872;37.462;2023-03-16T09:53:46;98849.03;;;6.67;67.57
66385;BME280;53426;55.872;37.462;2023-03-16T09:56:38;98840.66;;;6.73;67.25
66385;BME280;53426;55.872;37.462;2023-03-16T09:59:10;98849.41;;;6.74;67.28
66385;BME280;53426;55.872;37.462;2023-03-16T10:02:03;98857.53;;;6.71;67.37
66385;BME280;53426;55.872;37.462;2023-03-16T10:04:39;98863.78;;;6.59;67.97
66385;BME280;53426;55.872;37.462;2023-03-16T10:07:18;98855.03;;;6.47;68.55
66385;BME280;53426;55.872;37.462;2023-03-16T10:09:57;98853.38;;;6.35;69.45
66385;BME280;53426;55.872;37.462;2023-03-16T10:12:32;98860.66;;;6.32;69.17
66385;BME280;53426;55.872;37.462;2023-03-16T10:17:36;98864.81;;;6.34;69.58
66385;BME280;53426;55.872;37.462;2023-03-16T10:20:12;98838.16;;;6.27;68.71
66385;BME280;53426;55.872;37.462;2023-03-16T10:22:43;98858.63;;;6.46;68.10
66385;BME280;53426;55.872;37.462;2023-03-16T10:26:01;98856.59;;;6.50;67.82
66385;BME280;53426;55.872;37.462;2023-03-16T10:28:18;98848.22;;;6.34;68.14
66385;BME280;53426;55.872;37.462;2023-03-16T10:30:52;98835.91;;;6.23;68.24
66385;BME280;53426;55.872;37.462;2023-03-16T10:33:26;98867.09;;;6.39;67.73
66385;BME280;53426;55.872;37.462;2023-03-16T10:35:54;98867.34;;;6.47;68.75
66385;BME280;53426;55.872;37.462;2023-03-16T10:38:27;98864.34;;;6.51;68.02
66385;BME280;53426;55.872;37.462;2023-03-16T10:40:55;98858.63;;;6.46;68.30
66385;BME280;53426;55.872;37.462;2023-03-16T10:43:22;98864.00;;;6.45;68.48
66385;BME280;53426;55.872;37.462;2023-03-16T10:45:48;98869.50;;;6.53;67.95
66385;BME280;53426;55.872;37.462;2023-03-16T10:48:19;98865.94;;;6.54;68.52
66385;BME280;53426;55.872;37.462;2023-03-16T10:50:52;98875.97;;;6.49;68.55
66385;BME280;53426;55.872;37.462;2023-03-16T10:53:28;98878.59;;;6.49;68.71
66385;BME280;53426;55.872;37.462;2023-03-16T10:56:00;98868.09;;;6.49;69.00
66385;BME280;53426;55.872;37.462;2023-03-16T10:58:31;98828.84;;;6.23;68.63
66385;BME280;53426;55.872;37.462;2023-03-16T11:00:59;98869.97;;;6.47;68.51
66385;BME280;53426;55.872;37.462;2023-03-16T11:03:27;98857.31;;;6.41;68.38
66385;BME280;53426;55.872;37.462;2023-03-16T11:06:03;98876.44;;;6.54;68.53
66385;BME280;53426;55.872;37.462;2023-03-16T11:08:39;98872.63;;;6.58;68.02
66385;BME280;53426;55.872;37.462;2023-03-16T11:11:09;98878.94;;;6.55;68.11
66385;BME280;53426;55.872;37.462;2023-03-16T11:13:43;98869.41;;;6.54;68.09
66385;BME280;53426;55.872;37.462;2023-03-16T11:16:27;98872.63;;;6.58;68.55
66385;BME280;53426;55.872;37.462;2023-03-16T11:19:04;98855.88;;;6.48;68.58
66385;BME280;53426;55.872;37.462;2023-03-16T11:24:17;98878.47;;;6.50;68.01
66385;BME280;53426;55.872;37.462;2023-03-16T11:26:54;98876.19;;;6.46;68.37
66385;BME280;53426;55.872;37.462;2023-03-16T11:29:27;98865.66;;;6.46;68.30
66385;BME280;53426;55.872;37.462;2023-03-16T11:32:02;98873.81;;;6.43;68.46
66385;BME280;53426;55.872;37.462;2023-03-16T11:34:33;98874.88;;;6.29;68.25
66385;BME280;53426;55.872;37.462;2023-03-16T11:42:29;98883.66;;;6.06;69.02
66385;BME280;53426;55.872;37.462;2023-03-16T11:45:19;98885.47;;;6.05;69.39
66385;BME280;53426;55.872;37.462;2023-03-16T12:00:12;98897.84;;;5.92;70.25
66385;BME280;53426;55.872;37.462;2023-03-16T12:13:24;98873.72;;;5.63;70.67
66385;BME280;53426;55.872;37.462;2023-03-16T12:18:46;98885.34;;;5.72;70.71
66385;BME280;53426;55.872;37.462;2023-03-16T12:21:19;98911.25;;;5.89;70.77
66385;BME280;53426;55.872;37.462;2023-03-16T12:23:53;98916.25;;;5.92;70.13
66385;BME280;53426;55.872;37.462;2023-03-16T12:26:26;98920.06;;;5.88;70.95
66385;BME280;53426;55.872;37.462;2023-03-16T12:28:55;98916.06;;;5.82;71.06
66385;BME280;53426;55.872;37.462;2023-03-16T12:34:42;98920.06;;;5.88;70.82
66385;BME280;53426;55.872;37.462;2023-03-16T12:37:33;98933.84;;;5.79;71.24
66385;BME280;53426;55.872;37.462;2023-03-16T12:48:27;98925.75;;;5.58;72.49
66385;BME280;53426;55.872;37.462;2023-03-16T12:50:57;98933.41;;;5.61;73.31
66385;BME280;53426;55.872;37.462;2023-03-16T12:56:18;98934.53;;;5.70;72.81
66385;BME280;53426;55.872;37.462;2023-03-16T12:58:58;98932.84;;;5.69;72.82
66385;BME280;53426;55.872;37.462;2023-03-16T13:01:38;98938.72;;;5.72;73.33
66385;BME280;53426;55.872;37.462;2023-03-16T13:04:19;98920.41;;;5.60;72.88
66385;BME280;53426;55.872;37.462;2023-03-16T13:06:50;98950.19;;;5.71;72.35
66385;BME280;53426;55.872;37.462;2023-03-16T13:09:27;98950.38;;;5.68;72.76
66385;BME280;53426;55.872;37.462;2023-03-16T13:11:56;98958.41;;;5.67;73.33
66385;BME280;53426;55.872;37.462;2023-03-16T13:14:43;98947.31;;;5.74;73.50
66385;BME280;53426;55.872;37.462;2023-03-16T13:19:42;98935.06;;;5.62;72.69
66385;BME280;53426;55.872;37.462;2023-03-16T13:23:05;98941.81;;;5.66;73.20
66385;BME280;53426;55.872;37.462;2023-03-16T13:25:14;98946.91;;;5.68;72.92
66385;BME280;53426;55.872;37.462;2023-03-16T13:27:45;98918.66;;;5.47;73.35
66385;BME280;53426;55.872;37.462;2023-03-16T13:32:42;98948.19;;;5.62;72.98
66385;BME280;53426;55.872;37.462;2023-03-16T13:35:13;98939.22;;;5.54;73.63
66385;BME280;53426;55.872;37.462;2023-03-16T13:37:41;98929.91;;;5.50;73.80
66385;BME280;53426;55.872;37.462;2023-03-16T13:40:21;98951.91;;;5.60;73.73
66385;BME280;53426;55.872;37.462;2023-03-16T13:42:48;98946.59;;;5.48;73.38
66385;BME280;53426;55.872;37.462;2023-03-16T13:45:30;98950.06;;;5.49;74.07
66385;BME280;53426;55.872;37.462;2023-03-16T13:48:16;98938.13;;;5.45;74.16
66385;BME280;53426;55.872;37.462;2023-03-16T13:50:53;98910.47;;;5.28;74.45
66385;BME280;53426;55.872;37.462;2023-03-16T13:53:29;98950.50;;;5.43;73.67
66385;BME280;53426;55.872;37.462;2023-03-16T13:55:57;98928.94;;;5.27;73.89
66385;BME280;53426;55.872;37.462;2023-03-16T13:58:30;98906.53;;;5.10;74.21
66385;BME280;53426;55.872;37.462;2023-03-16T14:00:59;98920.16;;;5.15;74.57
66385;BME280;53426;55.872;37.462;2023-03-16T14:03:54;98936.81;;;5.27;74.58
66385;BME280;53426;55.872;37.462;2023-03-16T14:06:26;98913.47;;;4.98;74.09
66385;BME280;53426;55.872;37.462;2023-03-16T14:08:58;98948.50;;;5.10;74.12
66385;BME280;53426;55.872;37.462;2023-03-16T14:11:26;98944.13;;;4.98;74.61
66385;BME280;53426;55.872;37.462;2023-03-16T14:13:55;98933.78;;;4.84;74.73
66385;BME280;53426;55.872;37.462;2023-03-16T14:16:26;98945.28;;;4.94;74.94
66385;BME280;53426;55.872;37.462;2023-03-16T14:19:06;98925.69;;;4.87;75.11